Time;durP1;ratioP1;P1;durP2;ratioP2;P2;SDS_P1;SDS_P2;PMS_P1;PMS_P2;Temp;Humidity;BMP_temperature;BMP_pressure;BME280_temperature;BME280_humidity;BME280_pressure;Samples;Min_cycle;Max_cycle;Signal;HPM_P1;HPM_P2
2022/09/02 00:00:00;;;;;;;6.60;1.80;;;;;;;9.64;89.80;100629.70;105212;1271;69811;-78
2022/09/02 00:03:01;;;;;;;5.50;1.60;;;;;;;9.66;89.93;100632.34;105395;1271;73987;-78
2022/09/02 00:05:49;;;;;;;6.10;1.80;;;;;;;9.69;89.86;100631.44;105175;1271;59683;-75
2022/09/02 00:08:38;;;;;;;5.30;1.60;;;;;;;9.72;89.89;100630.38;105384;1271;60273;-78
2022/09/02 00:11:30;;;;;;;6.10;1.70;;;;;;;9.73;89.88;100629.42;104999;1271;74861;-79
2022/09/02 00:14:33;;;;;;;6.50;1.80;;;;;;;9.74;89.92;100627.21;105158;1271;69192;-77
2022/09/02 00:17:21;;;;;;;6.40;1.60;;;;;;;9.77;89.57;100630.23;105097;1271;71410;-80
2022/09/02 00:20:09;;;;;;;6.50;1.70;;;;;;;9.79;89.35;100631.14;104983;1271;59774;-80
2022/09/02 00:22:59;;;;;;;6.80;1.70;;;;;;;9.86;89.68;100633.35;104994;1271;59535;-80
2022/09/02 00:25:47;;;;;;;5.50;1.60;;;;;;;9.93;89.37;100637.34;105042;1271;73027;-79
2022/09/02 00:28:35;;;;;;;7.10;1.90;;;;;;;10.00;89.01;100634.88;105099;1271;67764;-78
2022/09/02 00:31:26;;;;;;;6.70;1.50;;;;;;;10.08;89.22;100635.68;105124;1271;71453;-81
2022/09/02 00:34:15;;;;;;;6.00;1.50;;;;;;;10.13;88.81;100639.02;105268;1271;59802;-79
2022/09/02 00:37:03;;;;;;;4.70;1.30;;;;;;;10.19;89.00;100635.27;105054;1271;61894;-78
2022/09/02 00:39:53;;;;;;;5.30;1.50;;;;;;;10.23;89.01;100636.23;105108;1271;73510;-78
2022/09/02 00:42:41;;;;;;;5.60;1.60;;;;;;;10.26;88.67;100635.38;105257;1271;67850;-79
2022/09/02 00:45:29;;;;;;;6.50;1.50;;;;;;;10.26;88.25;100638.00;105016;1271;74406;-80
2022/09/02 00:48:17;;;;;;;7.20;1.80;;;;;;;10.29;88.57;100640.85;104984;1271;60225;-76
2022/09/02 00:51:07;;;;;;;5.70;1.60;;;;;;;10.30;88.06;100643.56;105421;1271;59763;-78
2022/09/02 00:53:55;;;;;;;5.60;1.50;;;;;;;10.29;87.85;100638.34;105303;1271;74546;-77
2022/09/02 00:56:46;;;;;;;6.20;1.90;;;;;;;10.28;87.90;100635.93;105150;1271;69635;-78
2022/09/02 00:59:49;;;;;;;7.10;1.90;;;;;;;10.27;87.84;100633.64;105434;1271;72934;-76
2022/09/02 01:02:40;;;;;;;5.70;1.90;;;;;;;10.28;87.62;100633.29;105302;1271;60166;-77
2022/09/02 01:05:33;;;;;;;6.00;1.40;;;;;;;10.27;87.70;100632.61;105131;1271;61896;-76
2022/09/02 01:08:28;;;;;;;6.00;1.50;;;;;;;10.27;87.85;100631.90;104862;1274;73252;-76
2022/09/02 01:11:20;;;;;;;4.70;1.20;;;;;;;10.29;87.88;100631.59;105090;1271;69505;-77
2022/09/02 01:14:11;;;;;;;6.60;1.30;;;;;;;10.33;87.60;100633.61;105120;1271;73083;-77
2022/09/02 01:17:00;;;;;;;4.60;1.20;;;;;;;10.38;87.46;100638.08;105129;1271;60332;-76
2022/09/02 01:19:56;;;;;;;5.30;1.20;;;;;;;10.43;87.57;100638.11;105153;1271;62316;-77
2022/09/02 01:22:45;;;;;;;5.00;1.20;;;;;;;10.51;87.57;100636.56;105126;1271;73498;-81
2022/09/02 01:25:34;;;;;;;4.30;1.00;;;;;;;10.58;87.83;100641.02;105579;1271;67794;-83
2022/09/02 01:28:22;;;;;;;4.60;1.10;;;;;;;10.66;88.12;100645.97;105544;1271;72815;-83
2022/09/02 01:31:11;;;;;;;4.50;1.10;;;;;;;10.73;88.26;100643.14;105325;1271;59733;-82
2022/09/02 01:33:59;;;;;;;4.40;1.00;;;;;;;10.80;88.63;100644.10;105361;1271;60915;-81
2022/09/02 01:36:48;;;;;;;4.00;1.00;;;;;;;10.87;88.78;100639.92;105204;1271;73567;-79
2022/09/02 01:39:36;;;;;;;4.90;1.20;;;;;;;10.94;88.72;100639.06;104987;1272;68659;-79
2022/09/02 01:42:24;;;;;;;5.80;1.20;;;;;;;11.03;89.04;100637.77;105054;1271;74531;-78
2022/09/02 01:45:14;;;;;;;5.00;1.30;;;;;;;11.09;89.04;100634.08;105045;1274;59708;-76
2022/09/02 01:48:04;;;;;;;4.70;1.10;;;;;;;11.15;89.40;100637.23;105001;1271;62182;-76
2022/09/02 01:50:59;;;;;;;6.50;1.00;;;;;;;11.19;89.07;100636.44;105060;1272;73763;-75
2022/09/02 01:53:48;;;;;;;4.60;1.10;;;;;;;11.20;88.94;100634.54;105243;1271;66656;-78
2022/09/02 01:56:36;;;;;;;5.30;1.00;;;;;;;11.20;88.99;100632.29;105534;1271;74737;-75
2022/09/02 01:59:25;;;;;;;4.20;1.10;;;;;;;11.16;89.00;100628.27;105443;1272;59783;-76
2022/09/02 02:02:13;;;;;;;4.40;1.00;;;;;;;11.13;89.07;100627.98;104756;1271;1465032;-76
2022/09/02 02:05:01;;;;;;;5.40;1.10;;;;;;;11.10;89.17;100625.50;105339;1271;74707;-76
2022/09/02 02:07:52;;;;;;;4.40;1.20;;;;;;;11.11;89.28;100622.95;104996;1271;68585;-75
2022/09/02 02:10:42;;;;;;;5.60;1.00;;;;;;;11.12;89.08;100620.60;105071;1271;72913;-77
2022/09/02 02:13:33;;;;;;;5.20;1.20;;;;;;;11.14;89.12;100621.52;106074;1271;60266;-77
2022/09/02 02:16:21;;;;;;;5.50;1.10;;;;;;;11.14;88.67;100621.66;105990;1271;61142;-76
2022/09/02 02:19:09;;;;;;;4.10;1.00;;;;;;;11.14;88.29;100621.89;105071;1271;72742;-76
2022/09/02 02:21:58;;;;;;;4.80;1.10;;;;;;;11.10;88.30;100618.61;107399;1271;65558;-75
2022/09/02 02:24:46;;;;;;;4.60;1.20;;;;;;;11.05;87.93;100620.33;106289;1271;71718;-77
2022/09/02 02:27:34;;;;;;;4.60;1.00;;;;;;;10.98;88.23;100616.20;108332;1271;58475;-76
2022/09/02 02:30:26;;;;;;;5.30;1.10;;;;;;;10.93;88.18;100619.77;105544;1272;60452;-77
2022/09/02 02:33:14;;;;;;;4.30;1.10;;;;;;;10.87;87.98;100617.00;105717;1271;73244;-77
2022/09/02 02:36:05;;;;;;;4.10;1.10;;;;;;;10.80;88.37;100615.90;106126;1271;69614;-77
2022/09/02 02:38:54;;;;;;;4.10;1.00;;;;;;;10.73;88.75;100616.72;105980;1270;73101;-78
2022/09/02 02:41:43;;;;;;;6.90;1.20;;;;;;;10.64;88.90;100608.13;105112;1271;59863;-77
2022/09/02 02:44:32;;;;;;;5.90;1.40;;;;;;;10.56;89.15;100609.41;105243;1272;59589;-75
2022/09/02 02:47:21;;;;;;;4.50;1.10;;;;;;;10.49;89.37;100610.74;104798;1274;72095;-77
2022/09/02 02:50:12;;;;;;;6.30;1.20;;;;;;;10.40;89.68;100615.64;105793;1271;69555;-77
2022/09/02 02:53:02;;;;;;;4.80;1.20;;;;;;;10.30;89.62;100616.13;105240;1271;72831;-76
2022/09/02 02:55:50;;;;;;;4.90;1.20;;;;;;;10.19;88.95;100615.90;105124;1271;61313;-76
2022/09/02 02:58:38;;;;;;;4.30;1.10;;;;;;;10.10;88.65;100615.80;105180;1271;60965;-76
2022/09/02 03:01:29;;;;;;;5.00;1.10;;;;;;;10.02;88.83;100614.36;105168;1271;71876;-77
2022/09/02 03:04:17;;;;;;;4.70;1.50;;;;;;;9.95;88.80;100613.42;105354;1271;66622;-80
2022/09/02 03:07:06;;;;;;;5.10;1.30;;;;;;;9.90;88.81;100617.48;104993;1272;74442;-77
2022/09/02 03:09:54;;;;;;;5.80;1.30;;;;;;;9.84;88.48;100614.00;104979;1271;59685;-76
2022/09/02 03:12:46;;;;;;;4.30;1.00;;;;;;;9.78;88.48;100617.77;105085;1271;62017;-78
2022/09/02 03:15:38;;;;;;;6.50;1.10;;;;;;;9.72;89.00;100614.97;107582;1271;73648;-80
2022/09/02 03:18:26;;;;;;;5.10;1.30;;;;;;;9.64;88.32;100613.16;108109;1271;68532;-80
2022/09/02 03:21:16;;;;;;;5.50;1.10;;;;;;;9.59;89.07;100614.22;107291;1271;73097;-78
2022/09/02 03:24:06;;;;;;;4.90;1.20;;;;;;;9.54;88.55;100614.35;105091;1271;59659;-78
2022/09/02 03:26:54;;;;;;;4.90;1.10;;;;;;;9.50;89.11;100616.33;105341;1271;61086;-79
2022/09/02 03:29:43;;;;;;;5.10;1.40;;;;;;;9.47;88.77;100619.55;105045;1271;74702;-78
2022/09/02 03:32:32;;;;;;;5.20;1.30;;;;;;;9.46;88.89;100616.84;106738;1271;68350;-80
2022/09/02 03:35:22;;;;;;;6.00;1.20;;;;;;;9.45;88.69;100621.50;106757;1272;75231;-79
2022/09/02 03:38:11;;;;;;;5.00;1.20;;;;;;;9.44;88.63;100621.39;105153;1270;59808;-79
2022/09/02 03:41:00;;;;;;;4.70;1.50;;;;;;;9.44;88.63;100625.27;105630;1271;62314;-79
2022/09/02 03:43:49;;;;;;;4.80;1.10;;;;;;;9.44;88.88;100629.70;105372;1271;72972;-78
2022/09/02 03:46:37;;;;;;;4.80;1.20;;;;;;;9.44;88.63;100628.81;106075;1271;68384;-79
2022/09/02 03:49:26;;;;;;;4.80;1.00;;;;;;;9.41;88.43;100627.02;105101;1271;71561;-79
2022/09/02 03:52:16;;;;;;;4.10;1.10;;;;;;;9.40;88.80;100634.20;105150;1271;60304;-78
2022/09/02 03:55:05;;;;;;;4.70;1.20;;;;;;;9.36;88.84;100635.98;105360;1271;59708;-76
2022/09/02 03:57:54;;;;;;;5.60;1.00;;;;;;;9.34;88.51;100635.11;105064;1271;74574;-75
2022/09/02 04:00:42;;;;;;;4.30;1.00;;;;;;;9.31;88.41;100635.82;105064;1271;69639;-75
2022/09/02 04:03:31;;;;;;;4.80;1.00;;;;;;;9.28;88.71;100637.05;105118;1271;73718;-76
2022/09/02 04:06:23;;;;;;;4.50;1.20;;;;;;;9.28;88.85;100635.84;105075;1271;59772;-75
2022/09/02 04:09:14;;;;;;;4.70;1.10;;;;;;;9.26;88.67;100639.64;104999;1271;62150;-77
2022/09/02 04:12:05;;;;;;;5.30;1.10;;;;;;;9.23;88.83;100643.58;105070;1271;73588;-75
2022/09/02 04:14:54;;;;;;;5.00;1.20;;;;;;;9.19;88.98;100647.70;104931;1271;66960;-77
2022/09/02 04:17:46;;;;;;;4.40;1.20;;;;;;;9.15;89.00;100643.02;105282;1271;72961;-76
2022/09/02 04:20:38;;;;;;;4.90;1.40;;;;;;;9.11;89.21;100642.20;105057;1271;59745;-75
2022/09/02 04:23:27;;;;;;;5.20;1.30;;;;;;;9.07;89.17;100645.61;104934;1271;60292;-76
2022/09/02 04:26:17;;;;;;;4.40;1.10;;;;;;;9.06;89.34;100645.20;105106;1271;74847;-75
2022/09/02 04:29:08;;;;;;;4.40;1.10;;;;;;;9.05;89.45;100644.88;104978;1271;68056;-75
2022/09/02 04:31:57;;;;;;;5.10;1.30;;;;;;;9.06;89.55;100646.96;104990;1271;72874;-78
2022/09/02 04:34:45;;;;;;;6.00;1.30;;;;;;;9.07;89.50;100648.30;105257;1271;61274;-78
2022/09/02 04:37:37;;;;;;;6.50;1.40;;;;;;;9.09;89.70;100647.63;105115;1271;62059;-76
2022/09/02 04:40:25;;;;;;;5.60;1.20;;;;;;;9.14;89.54;100651.95;105307;1271;73224;-78
2022/09/02 04:43:14;;;;;;;5.20;1.20;;;;;;;9.19;89.66;100651.08;105252;1271;69706;-79
2022/09/02 04:46:06;;;;;;;4.90;1.20;;;;;;;9.23;89.38;100652.27;105571;1271;74412;-79
2022/09/02 04:48:55;;;;;;;6.10;1.40;;;;;;;9.26;89.23;100655.27;104326;1274;1002675;-78
2022/09/02 04:51:43;;;;;;;5.70;1.10;;;;;;;9.28;89.49;100656.21;104962;1274;62215;-79
2022/09/02 04:54:31;;;;;;;5.10;1.10;;;;;;;9.31;89.30;100656.17;104849;1274;73475;-79
2022/09/02 04:57:21;;;;;;;4.50;1.10;;;;;;;9.37;89.19;100650.16;104787;1274;69022;-78
2022/09/02 05:00:10;;;;;;;4.40;1.10;;;;;;;9.41;89.07;100649.00;104804;1274;74857;-78
2022/09/02 05:03:00;;;;;;;5.70;1.30;;;;;;;9.49;89.14;100647.26;104768;1274;61574;-79
2022/09/02 05:06:05;;;;;;;4.90;1.10;;;;;;;9.59;88.96;100653.72;105628;1274;60626;-80
2022/09/02 05:08:58;;;;;;;4.90;1.30;;;;;;;9.68;88.33;100647.98;104673;1274;74820;-79
2022/09/02 05:11:48;;;;;;;4.60;1.10;;;;;;;9.75;88.40;100643.27;104873;1274;68021;-80
2022/09/02 05:14:37;;;;;;;4.60;1.20;;;;;;;9.81;87.91;100641.81;104956;1274;72789;-79
2022/09/02 05:17:31;;;;;;;4.60;1.30;;;;;;;9.87;87.84;100644.84;104837;1274;59872;-78
2022/09/02 05:20:21;;;;;;;4.10;0.90;;;;;;;9.92;87.46;100639.91;105052;1271;60544;-79
2022/09/02 05:23:12;;;;;;;5.40;1.10;;;;;;;9.96;87.17;100644.24;105120;1271;73229;-77
2022/09/02 05:26:07;;;;;;;6.10;1.30;;;;;;;10.01;86.71;100645.69;105024;1271;66978;-78
2022/09/02 05:28:55;;;;;;;4.40;0.90;;;;;;;10.09;86.60;100649.39;105045;1271;73452;-76
2022/09/02 05:31:44;;;;;;;5.80;1.10;;;;;;;10.17;86.42;100646.88;105210;1271;59754;-76
2022/09/02 05:34:34;;;;;;;4.00;0.90;;;;;;;10.25;86.48;100648.86;105185;1271;62092;-76
2022/09/02 05:37:24;;;;;;;6.60;1.00;;;;;;;10.30;86.19;100644.30;105256;1271;72721;-78
2022/09/02 05:40:17;;;;;;;5.00;1.10;;;;;;;10.37;85.95;100645.09;105066;1271;68558;-76
2022/09/02 05:43:09;;;;;;;6.20;1.20;;;;;;;10.41;85.68;100643.42;105240;1271;71707;-75
2022/09/02 05:45:58;;;;;;;5.40;1.40;;;;;;;10.43;85.60;100643.45;105476;1271;59531;-73
2022/09/02 05:49:06;;;;;;;5.20;1.20;;;;;;;10.49;85.46;100645.55;105443;1271;59667;-76
2022/09/02 05:52:01;;;;;;;4.80;1.20;;;;;;;10.59;84.94;100647.84;105416;1271;73714;-77
2022/09/02 05:55:02;;;;;;;4.60;1.20;;;;;;;10.68;85.11;100651.15;104933;1271;68944;-76
2022/09/02 05:57:51;;;;;;;5.10;1.40;;;;;;;10.79;84.70;100645.59;105017;1271;72857;-76
2022/09/02 06:00:39;;;;;;;5.30;1.30;;;;;;;10.92;84.20;100649.34;105425;1271;59518;-77
2022/09/02 06:03:27;;;;;;;5.40;1.30;;;;;;;11.08;83.93;100653.73;105259;1271;59659;-76
2022/09/02 06:06:17;;;;;;;5.80;1.20;;;;;;;11.27;83.49;100651.13;105189;1271;71986;-76
2022/09/02 06:09:08;;;;;;;5.00;1.20;;;;;;;11.45;83.27;100649.33;105047;1271;67728;-74
2022/09/02 06:11:56;;;;;;;4.90;1.30;;;;;;;11.65;82.55;100651.75;104992;1272;71017;-76
2022/09/02 06:14:48;;;;;;;5.80;1.40;;;;;;;11.88;81.79;100655.42;105013;1272;61750;-76
2022/09/02 06:17:36;;;;;;;4.80;1.20;;;;;;;12.13;81.08;100654.02;105408;1274;61243;-76
2022/09/02 06:20:27;;;;;;;5.20;1.30;;;;;;;12.40;80.70;100645.05;105343;1274;73962;-77
2022/09/02 06:23:16;;;;;;;5.90;1.20;;;;;;;12.74;79.27;100648.63;104921;1274;68811;-76
2022/09/02 06:26:08;;;;;;;3.90;1.00;;;;;;;13.15;77.86;100645.47;104979;1274;71462;-75
2022/09/02 06:28:56;;;;;;;5.10;1.40;;;;;;;13.44;77.14;100641.36;104977;1274;59886;-77
2022/09/02 06:31:47;;;;;;;6.10;1.20;;;;;;;13.78;76.18;100646.51;104993;1274;60522;-76
2022/09/02 06:34:35;;;;;;;5.80;1.20;;;;;;;14.22;75.13;100651.81;104911;1274;71620;-78
2022/09/02 06:37:24;;;;;;;6.50;1.30;;;;;;;14.73;73.62;100648.74;105071;1274;69568;-76
2022/09/02 06:40:13;;;;;;;5.00;1.00;;;;;;;15.04;71.93;100649.88;105286;1274;72371;-76
2022/09/02 06:43:02;;;;;;;5.70;1.10;;;;;;;15.18;70.87;100656.17;104967;1274;60006;-76
2022/09/02 06:45:53;;;;;;;5.20;1.20;;;;;;;15.37;70.26;100661.41;105062;1274;62018;-76
2022/09/02 06:48:41;;;;;;;5.30;1.30;;;;;;;15.93;69.21;100662.89;105427;1271;73638;-75
2022/09/02 06:51:36;;;;;;;4.50;1.20;;;;;;;17.00;66.73;100655.37;105773;1271;68524;-74
2022/09/02 06:54:25;;;;;;;4.90;1.10;;;;;;;17.81;62.73;100653.59;105022;1271;74091;-76
2022/09/02 06:57:23;;;;;;;5.30;1.50;;;;;;;18.69;59.68;100649.88;105400;1271;59564;-75
2022/09/02 07:00:24;;;;;;;5.90;1.20;;;;;;;19.23;57.10;100652.55;105255;1273;59681;-76
2022/09/02 07:06:24;;;;;;;5.10;1.10;;;;;;;19.75;55.15;100656.48;105339;1271;69596;-76
2022/09/02 07:09:20;;;;;;;5.80;1.20;;;;;;;20.52;52.98;100658.63;105104;1271;73143;-72
2022/09/02 07:12:11;;;;;;;5.80;1.40;;;;;;;20.56;51.59;100661.54;105160;1274;59810;-75
2022/09/02 07:15:07;;;;;;;5.10;1.00;;;;;;;20.55;51.40;100657.16;104925;1274;60518;-74
2022/09/02 07:17:57;;;;;;;5.20;1.00;;;;;;;21.18;50.56;100659.94;104933;1274;73893;-75
2022/09/02 07:20:53;;;;;;;5.80;1.20;;;;;;;21.87;48.86;100663.16;104862;1274;66813;-75
2022/09/02 07:23:41;;;;;;;5.20;1.00;;;;;;;22.28;47.39;100664.03;105079;1274;73252;-75
2022/09/02 07:26:33;;;;;;;6.20;1.10;;;;;;;22.56;46.51;100663.86;105077;1274;59771;-77
2022/09/02 07:29:22;;;;;;;4.50;0.80;;;;;;;23.11;45.30;100660.15;104861;1274;59821;-75
2022/09/02 07:32:11;;;;;;;5.70;1.10;;;;;;;23.88;43.32;100662.13;104828;1274;73177;-75
2022/09/02 07:34:59;;;;;;;6.10;1.20;;;;;;;24.63;41.53;100657.08;104846;1274;68454;-75
2022/09/02 07:37:49;;;;;;;5.70;1.10;;;;;;;25.40;39.43;100651.91;104911;1274;74357;-75
2022/09/02 07:40:40;;;;;;;4.30;1.00;;;;;;;26.58;37.53;100648.48;105149;1274;59997;-74
2022/09/02 07:43:32;;;;;;;3.80;0.90;;;;;;;28.50;33.99;100648.27;104882;1271;61101;-72
2022/09/02 07:46:20;;;;;;;4.40;1.00;;;;;;;29.98;31.17;100645.64;104889;1274;74590;-74
2022/09/02 07:49:11;;;;;;;5.20;0.90;;;;;;;31.41;28.29;100644.67;104893;1274;69693;-74
2022/09/02 07:51:58;;;;;;;3.70;0.70;;;;;;;32.57;27.54;100643.64;104833;1274;74456;-74
2022/09/02 07:54:47;;;;;;;4.90;0.80;;;;;;;33.61;25.68;100639.54;104862;1274;59829;-73
2022/09/02 07:57:35;;;;;;;6.40;1.00;;;;;;;34.20;24.65;100635.55;104772;1275;60242;-73
2022/09/02 08:00:26;;;;;;;5.00;0.90;;;;;;;34.84;23.75;100635.30;105142;1274;73745;-73
2022/09/02 08:03:18;;;;;;;3.50;0.60;;;;;;;35.48;22.54;100632.39;104764;1274;69715;-74
2022/09/02 08:06:11;;;;;;;4.20;0.70;;;;;;;35.91;22.25;100629.51;105030;1274;71400;-73
2022/09/02 08:08:59;;;;;;;4.50;0.60;;;;;;;36.26;21.00;100627.26;105171;1274;59758;-74
2022/09/02 08:11:49;;;;;;;3.80;0.70;;;;;;;36.55;20.51;100633.05;105307;1274;61039;-74
2022/09/02 08:14:37;;;;;;;2.70;0.40;;;;;;;37.14;20.27;100635.02;105127;1274;74765;-74
2022/09/02 08:17:25;;;;;;;2.80;0.50;;;;;;;37.47;19.66;100632.27;105344;1274;69167;-75
2022/09/02 08:20:15;;;;;;;3.00;0.40;;;;;;;37.85;19.13;100635.09;104898;1274;73375;-73
2022/09/02 08:23:05;;;;;;;3.10;0.50;;;;;;;38.28;18.74;100634.33;105142;1274;59724;-73
2022/09/02 08:26:05;;;;;;;2.90;0.50;;;;;;;38.42;18.46;100638.77;105262;1271;60377;-74
2022/09/02 08:28:56;;;;;;;2.40;0.40;;;;;;;38.33;18.29;100637.35;105127;1271;73291;-73
2022/09/02 08:31:44;;;;;;;3.70;0.50;;;;;;;37.63;18.44;100645.14;105362;1271;66676;-75
2022/09/02 08:34:38;;;;;;;2.20;0.40;;;;;;;36.32;19.40;100643.15;104962;1271;73231;-73
2022/09/02 08:37:31;;;;;;;3.00;0.50;;;;;;;35.36;20.18;100642.14;105448;1271;59688;-73
2022/09/02 08:40:23;;;;;;;3.30;0.50;;;;;;;34.64;20.55;100636.20;105033;1271;62313;-71
2022/09/02 08:43:43;;;;;;;4.10;0.80;;;;;;;32.93;22.34;100634.34;104897;1273;73309;-73
2022/09/02 08:46:34;;;;;;;3.30;0.60;;;;;;;31.15;24.52;100630.66;104984;1271;68315;-72
2022/09/02 08:49:44;;;;;;;4.10;0.80;;;;;;;29.91;26.19;100632.75;105093;1271;74574;-74
2022/09/02 08:53:04;;;;;;;4.20;0.90;;;;;;;28.78;27.50;100632.59;105257;1271;59765;-73
2022/09/02 08:55:56;;;;;;;3.20;0.60;;;;;;;27.70;28.71;100631.63;104963;1271;60575;-75
2022/09/02 08:58:53;;;;;;;4.20;1.00;;;;;;;26.84;30.49;100631.09;105087;1271;73780;-73
2022/09/02 09:01:53;;;;;;;4.90;1.00;;;;;;;26.02;32.02;100638.20;105376;1271;68875;-73
2022/09/02 09:05:07;;;;;;;4.70;0.90;;;;;;;25.35;33.17;100637.98;105299;1271;73526;-72
2022/09/02 09:08:21;;;;;;;5.00;0.90;;;;;;;24.55;34.07;100637.89;105273;1271;60533;-73
2022/09/02 09:11:22;;;;;;;6.20;0.90;;;;;;;23.66;35.67;100638.72;105018;1271;59517;-76
2022/09/02 09:14:48;;;;;;;4.00;0.80;;;;;;;22.85;37.46;100638.51;104853;1273;71968;-75
2022/09/02 09:17:56;;;;;;;6.30;1.10;;;;;;;22.03;39.60;100640.06;105338;1271;66777;-75
2022/09/02 09:20:45;;;;;;;4.60;1.10;;;;;;;21.47;41.19;100639.06;105228;1271;74369;-75
2022/09/02 09:23:38;;;;;;;4.50;1.00;;;;;;;21.05;42.09;100637.87;105156;1271;59765;-75
2022/09/02 09:26:31;;;;;;;5.20;1.30;;;;;;;22.20;41.59;100635.19;105123;1271;60569;-77
2022/09/02 09:29:20;;;;;;;4.50;0.90;;;;;;;24.41;37.68;100628.02;105437;1271;71726;-76
2022/09/02 09:32:21;;;;;;;4.50;0.80;;;;;;;26.11;34.43;100625.84;105175;1271;65749;-75
2022/09/02 09:35:16;;;;;;;5.30;1.00;;;;;;;26.31;32.85;100626.00;105995;1271;75479;-78
2022/09/02 09:38:12;;;;;;;5.60;1.10;;;;;;;25.96;33.19;100626.57;105233;1271;60253;-76
2022/09/02 09:41:20;;;;;;;4.40;0.70;;;;;;;25.31;33.48;100624.58;105031;1274;61418;-75
2022/09/02 09:44:08;;;;;;;2.80;0.70;;;;;;;24.40;34.03;100633.35;104928;1274;73292;-76
2022/09/02 09:47:08;;;;;;;4.40;0.90;;;;;;;23.53;35.63;100632.12;105251;1274;65740;-76
2022/09/02 09:50:17;;;;;;;4.00;0.80;;;;;;;22.52;37.83;100636.24;105123;1274;72729;-73
2022/09/02 09:53:22;;;;;;;3.70;0.70;;;;;;;21.63;39.31;100642.91;105155;1274;59724;-75
2022/09/02 09:56:13;;;;;;;3.40;0.80;;;;;;;20.93;40.84;100644.70;105044;1274;59621;-74
2022/09/02 09:59:01;;;;;;;4.20;0.70;;;;;;;20.49;41.96;100644.88;105041;1274;73533;-74
2022/09/02 10:01:50;;;;;;;3.90;0.80;;;;;;;20.20;43.60;100647.08;104818;1271;66888;-76
2022/09/02 10:04:38;;;;;;;3.90;0.90;;;;;;;20.02;43.31;100646.42;104827;1274;72958;-73
2022/09/02 10:07:35;;;;;;;3.50;1.00;;;;;;;19.92;43.60;100640.30;104829;1274;59673;-74
2022/09/02 10:10:27;;;;;;;4.60;1.10;;;;;;;19.85;44.28;100641.78;104861;1274;59651;-75
2022/09/02 10:13:24;;;;;;;4.90;1.00;;;;;;;20.00;43.93;100638.86;105033;1271;73184;-75
2022/09/02 10:16:26;;;;;;;5.30;0.90;;;;;;;20.96;42.34;100632.66;104960;1271;69561;-74
2022/09/02 10:19:33;;;;;;;3.80;0.90;;;;;;;21.33;40.83;100631.34;105137;1271;72934;-75
2022/09/02 10:22:44;;;;;;;4.00;0.80;;;;;;;21.26;40.68;100632.86;105019;1271;60050;-75
2022/09/02 10:26:31;;;;;;;3.80;0.90;;;;;;;21.11;41.71;100632.21;105130;1271;62099;-75
2022/09/02 10:29:57;;;;;;;5.50;0.90;;;;;;;20.87;42.17;100635.96;105028;1271;74514;-73
2022/09/02 10:33:16;;;;;;;5.20;1.30;;;;;;;20.46;42.75;100638.52;105012;1271;68578;-74
2022/09/02 10:36:29;;;;;;;4.10;0.80;;;;;;;20.18;43.65;100646.24;105247;1271;74418;-77
2022/09/02 10:40:07;;;;;;;5.50;0.90;;;;;;;19.99;44.13;100650.14;105179;1271;59669;-77
2022/09/02 10:43:01;;;;;;;4.00;0.90;;;;;;;19.85;44.74;100646.64;104974;1271;61965;-76
2022/09/02 10:45:58;;;;;;;3.90;1.00;;;;;;;19.78;44.61;100647.65;105041;1271;74760;-76
2022/09/02 10:49:03;;;;;;;3.90;0.90;;;;;;;20.73;42.90;100646.07;105007;1271;67760;-77
2022/09/02 10:52:14;;;;;;;4.50;1.00;;;;;;;23.06;40.29;100640.05;105021;1271;73243;-75
2022/09/02 10:55:57;;;;;;;4.10;0.80;;;;;;;24.25;38.42;100640.81;105113;1271;59723;-75
2022/09/02 10:59:01;;;;;;;4.40;1.00;;;;;;;23.53;39.09;100643.05;105108;1273;59637;-74
2022/09/02 11:02:14;;;;;;;4.10;0.80;;;;;;;22.80;39.95;100644.40;105015;1271;73847;-75
2022/09/02 11:05:13;;;;;;;4.60;0.90;;;;;;;22.28;41.57;100650.69;105246;1271;68146;-74
2022/09/02 11:08:17;;;;;;;3.50;0.80;;;;;;;23.26;40.04;100649.98;105368;1271;72867;-75
2022/09/02 11:11:22;;;;;;;5.00;1.00;;;;;;;24.97;37.54;100642.70;105076;1271;59761;-75
2022/09/02 11:15:05;;;;;;;4.00;0.80;;;;;;;26.05;35.37;100641.40;105334;1271;60112;-74
2022/09/02 11:18:43;;;;;;;4.00;0.80;;;;;;;25.91;34.03;100641.48;105534;1271;74082;-75
2022/09/02 11:21:49;;;;;;;5.60;0.80;;;;;;;25.06;34.77;100640.83;105183;1271;68732;-76
2022/09/02 11:25:23;;;;;;;4.00;0.90;;;;;;;24.20;35.50;100637.63;105195;1271;72182;-73
2022/09/02 11:28:23;;;;;;;2.70;0.70;;;;;;;23.34;36.93;100636.38;105159;1271;59780;-76
2022/09/02 11:31:29;;;;;;;4.40;1.00;;;;;;;22.89;37.79;100634.80;105171;1271;60585;-75
2022/09/02 11:34:46;;;;;;;4.80;0.90;;;;;;;22.15;38.51;100639.02;105149;1271;74550;-76
2022/09/02 11:38:02;;;;;;;4.30;0.90;;;;;;;21.44;39.45;100639.05;105378;1271;68134;-75
2022/09/02 11:41:16;;;;;;;4.80;0.90;;;;;;;20.90;40.95;100639.06;105452;1271;72249;-75
2022/09/02 11:44:52;;;;;;;4.30;1.10;;;;;;;20.50;42.71;100641.85;105175;1271;59755;-75
2022/09/02 11:48:11;;;;;;;5.00;0.90;;;;;;;20.93;43.29;100638.33;105747;1271;60594;-76
2022/09/02 11:51:47;;;;;;;4.40;1.00;;;;;;;21.42;41.66;100635.20;105625;1271;72034;-74
2022/09/02 11:54:47;;;;;;;4.10;0.90;;;;;;;22.32;39.86;100634.45;105680;1271;68590;-76
2022/09/02 11:57:40;;;;;;;4.00;0.80;;;;;;;23.18;38.55;100630.05;105446;1271;71578;-76
2022/09/02 12:00:53;;;;;;;4.10;0.90;;;;;;;23.48;37.16;100629.45;105280;1271;59784;-76
2022/09/02 12:04:01;;;;;;;3.70;0.70;;;;;;;23.96;36.50;100627.27;108400;1271;60857;-74
2022/09/02 12:07:11;;;;;;;4.20;0.80;;;;;;;24.28;35.69;100622.17;107209;1271;74053;-74
2022/09/02 12:10:01;;;;;;;3.10;0.70;;;;;;;24.14;36.19;100624.86;105228;1271;69633;-74
2022/09/02 12:12:53;;;;;;;3.60;0.70;;;;;;;23.71;35.90;100621.27;105165;1271;74409;-75
2022/09/02 12:15:44;;;;;;;4.50;0.90;;;;;;;23.38;35.97;100616.21;105215;1270;59778;-75
2022/09/02 12:18:35;;;;;;;3.80;0.80;;;;;;;23.17;36.51;100607.67;105261;1270;61036;-76
2022/09/02 12:21:26;;;;;;;3.30;0.80;;;;;;;22.99;37.22;100612.16;105220;1271;72092;-76
2022/09/02 12:24:20;;;;;;;4.00;0.80;;;;;;;22.85;37.74;100609.24;105630;1271;69408;-76
2022/09/02 12:27:26;;;;;;;3.70;0.80;;;;;;;22.75;37.85;100605.52;105158;1271;72765;-74
2022/09/02 12:30:14;;;;;;;5.20;1.10;;;;;;;22.63;38.24;100604.64;105133;1271;59570;-78
2022/09/02 12:33:11;;;;;;;3.70;0.80;;;;;;;22.35;38.21;100607.02;104993;1271;59649;-75
2022/09/02 12:36:28;;;;;;;5.70;1.00;;;;;;;22.11;39.08;100606.77;105158;1271;73574;-75
2022/09/02 12:39:28;;;;;;;4.50;0.80;;;;;;;22.03;39.35;100605.63;105334;1271;69619;-76
2022/09/02 12:42:30;;;;;;;4.60;0.80;;;;;;;21.73;40.76;100601.51;105000;1271;71807;-74
2022/09/02 12:45:26;;;;;;;4.40;0.90;;;;;;;21.22;41.85;100599.95;105163;1271;59728;-73
2022/09/02 12:48:23;;;;;;;4.50;0.90;;;;;;;20.76;43.73;100602.95;105136;1271;61289;-74
2022/09/02 12:51:58;;;;;;;3.80;0.80;;;;;;;20.19;45.20;100608.89;105400;1271;73457;-75
2022/09/02 12:54:50;;;;;;;3.80;0.80;;;;;;;19.64;46.56;100609.34;105037;1271;68329;-76
2022/09/02 12:57:46;;;;;;;4.00;0.90;;;;;;;19.23;47.67;100602.54;105135;1271;74187;-74
2022/09/02 13:00:45;;;;;;;3.80;0.90;;;;;;;19.07;48.52;100605.01;105161;1271;59732;-74
2022/09/02 13:04:44;;;;;;;4.40;0.90;;;;;;;19.16;48.19;100602.43;105201;1271;61737;-74
2022/09/02 13:08:03;;;;;;;4.30;0.90;;;;;;;19.32;47.31;100605.01;105012;1271;72922;-74
2022/09/02 13:11:54;;;;;;;3.80;0.70;;;;;;;19.46;46.40;100600.69;105265;1271;68004;-73
2022/09/02 13:15:29;;;;;;;4.40;0.80;;;;;;;19.45;46.12;100602.03;105193;1271;72887;-75
2022/09/02 13:19:00;;;;;;;2.90;0.80;;;;;;;19.56;46.36;100597.81;105086;1272;59896;-71
2022/09/02 13:22:19;;;;;;;4.90;1.00;;;;;;;19.65;46.37;100596.31;105498;1270;59784;-74
2022/09/02 13:26:13;;;;;;;3.60;0.80;;;;;;;19.80;46.05;100598.01;105200;1272;73788;-73
2022/09/02 13:30:12;;;;;;;5.90;2.40;;;;;;;19.99;45.36;100604.39;105312;1271;68095;-73
2022/09/02 13:33:10;;;;;;;5.40;1.70;;;;;;;20.10;45.60;100611.69;105186;1271;72879;-73
2022/09/02 13:35:59;;;;;;;5.20;1.40;;;;;;;20.16;45.04;100610.48;104990;1271;59656;-74